sensor_id;sensor_type;location;lat;lon;timestamp;P1;durP1;ratioP1;P2;durP2;ratioP2
13733;SDS011;43298;52.560;13.508;2023-07-22T00:01:00;1.83;;;1.70;;
13733;SDS011;43298;52.560;13.508;2023-07-22T00:03:26;3.25;;;1.77;;
13733;SDS011;43298;52.560;13.508;2023-07-22T00:06:08;2.50;;;1.80;;
13733;SDS011;43298;52.560;13.508;2023-07-22T00:08:35;1.75;;;1.65;;
13733;SDS011;43298;52.560;13.508;2023-07-22T00:11:03;1.73;;;1.63;;
13733;SDS011;43298;52.560;13.508;2023-07-22T00:13:30;2.17;;;1.83;;
13733;SDS011;43298;52.560;13.508;2023-07-22T00:15:57;1.38;;;1.27;;
13733;SDS011;43298;52.560;13.508;2023-07-22T00:18:24;3.63;;;1.70;;
13733;SDS011;43298;52.560;13.508;2023-07-22T00:20:52;1.60;;;1.50;;
13733;SDS011;43298;52.560;13.508;2023-07-22T00:23:19;1.73;;;1.63;;
13733;SDS011;43298;52.560;13.508;2023-07-22T00:25:46;1.60;;;1.50;;
13733;SDS011;43298;52.560;13.508;2023-07-22T00:28:12;2.95;;;2.00;;
13733;SDS011;43298;52.560;13.508;2023-07-22T00:30:38;2.63;;;2.05;;
13733;SDS011;43298;52.560;13.508;2023-07-22T00:33:04;1.55;;;1.45;;
13733;SDS011;43298;52.560;13.508;2023-07-22T00:35:31;2.13;;;1.80;;
13733;SDS011;43298;52.560;13.508;2023-07-22T00:37:57;1.95;;;1.58;;
13733;SDS011;43298;52.560;13.508;2023-07-22T00:40:24;3.13;;;2.20;;
13733;SDS011;43298;52.560;13.508;2023-07-22T00:42:50;3.33;;;1.95;;
13733;SDS011;43298;52.560;13.508;2023-07-22T00:45:16;2.15;;;1.95;;
13733;SDS011;43298;52.560;13.508;2023-07-22T00:47:42;1.85;;;1.75;;
13733;SDS011;43298;52.560;13.508;2023-07-22T00:50:08;2.60;;;2.35;;
13733;SDS011;43298;52.560;13.508;2023-07-22T00:52:34;3.65;;;1.92;;
13733;SDS011;43298;52.560;13.508;2023-07-22T00:55:00;2.58;;;1.95;;
13733;SDS011;43298;52.560;13.508;2023-07-22T00:57:27;2.22;;;2.03;;
13733;SDS011;43298;52.560;13.508;2023-07-22T00:59:54;2.60;;;1.95;;
13733;SDS011;43298;52.560;13.508;2023-07-22T01:02:20;5.28;;;2.40;;
13733;SDS011;43298;52.560;13.508;2023-07-22T01:04:46;6.90;;;2.47;;
13733;SDS011;43298;52.560;13.508;2023-07-22T01:07:14;2.45;;;2.17;;
13733;SDS011;43298;52.560;13.508;2023-07-22T01:09:40;2.35;;;1.85;;
13733;SDS011;43298;52.560;13.508;2023-07-22T01:12:08;2.45;;;2.25;;
13733;SDS011;43298;52.560;13.508;2023-07-22T01:14:39;3.03;;;2.10;;
13733;SDS011;43298;52.560;13.508;2023-07-22T01:17:07;1.73;;;1.58;;
13733;SDS011;43298;52.560;13.508;2023-07-22T01:19:35;3.08;;;2.10;;
13733;SDS011;43298;52.560;13.508;2023-07-22T01:22:02;2.05;;;1.92;;
13733;SDS011;43298;52.560;13.508;2023-07-22T01:24:32;2.13;;;1.92;;
13733;SDS011;43298;52.560;13.508;2023-07-22T01:26:58;3.78;;;2.38;;
13733;SDS011;43298;52.560;13.508;2023-07-22T01:29:24;2.10;;;1.90;;
13733;SDS011;43298;52.560;13.508;2023-07-22T01:31:50;3.05;;;2.13;;
13733;SDS011;43298;52.560;13.508;2023-07-22T01:34:19;1.73;;;1.63;;
13733;SDS011;43298;52.560;13.508;2023-07-22T01:36:46;2.50;;;2.28;;
13733;SDS011;43298;52.560;13.508;2023-07-22T01:39:14;2.30;;;2.10;;
13733;SDS011;43298;52.560;13.508;2023-07-22T01:41:40;3.45;;;2.40;;
13733;SDS011;43298;52.560;13.508;2023-07-22T01:44:06;2.08;;;1.88;;
13733;SDS011;43298;52.560;13.508;2023-07-22T01:46:33;2.28;;;2.08;;
13733;SDS011;43298;52.560;13.508;2023-07-22T01:48:59;2.25;;;2.05;;
13733;SDS011;43298;52.560;13.508;2023-07-22T01:51:26;2.97;;;2.15;;
13733;SDS011;43298;52.560;13.508;2023-07-22T01:53:52;2.85;;;2.50;;
13733;SDS011;43298;52.560;13.508;2023-07-22T01:56:18;2.28;;;1.95;;
13733;SDS011;43298;52.560;13.508;2023-07-22T01:58:47;5.90;;;2.50;;
13733;SDS011;43298;52.560;13.508;2023-07-22T02:01:12;6.15;;;2.17;;
13733;SDS011;43298;52.560;13.508;2023-07-22T02:03:40;2.70;;;2.50;;
13733;SDS011;43298;52.560;13.508;2023-07-22T02:06:06;2.75;;;2.53;;
13733;SDS011;43298;52.560;13.508;2023-07-22T02:08:32;2.47;;;2.28;;
13733;SDS011;43298;52.560;13.508;2023-07-22T02:11:02;2.67;;;2.42;;
13733;SDS011;43298;52.560;13.508;2023-07-22T02:13:30;2.08;;;1.88;;
13733;SDS011;43298;52.560;13.508;2023-07-22T02:15:56;4.53;;;2.30;;
13733;SDS011;43298;52.560;13.508;2023-07-22T02:18:22;2.60;;;2.40;;
13733;SDS011;43298;52.560;13.508;2023-07-22T02:20:48;3.10;;;2.22;;
13733;SDS011;43298;52.560;13.508;2023-07-22T02:23:14;2.22;;;2.00;;
13733;SDS011;43298;52.560;13.508;2023-07-22T02:25:40;2.55;;;2.28;;
13733;SDS011;43298;52.560;13.508;2023-07-22T02:28:06;3.92;;;2.13;;
13733;SDS011;43298;52.560;13.508;2023-07-22T02:30:35;2.20;;;1.85;;
13733;SDS011;43298;52.560;13.508;2023-07-22T02:33:02;3.17;;;2.30;;
13733;SDS011;43298;52.560;13.508;2023-07-22T02:35:30;2.42;;;2.15;;
13733;SDS011;43298;52.560;13.508;2023-07-22T02:37:56;4.05;;;2.45;;
13733;SDS011;43298;52.560;13.508;2023-07-22T02:40:22;2.40;;;2.20;;
13733;SDS011;43298;52.560;13.508;2023-07-22T02:42:47;2.63;;;2.22;;
13733;SDS011;43298;52.560;13.508;2023-07-22T02:45:13;3.20;;;2.58;;
13733;SDS011;43298;52.560;13.508;2023-07-22T02:47:39;1.90;;;1.75;;
13733;SDS011;43298;52.560;13.508;2023-07-22T02:50:05;2.13;;;1.90;;
13733;SDS011;43298;52.560;13.508;2023-07-22T02:52:32;3.55;;;2.42;;
13733;SDS011;43298;52.560;13.508;2023-07-22T02:55:13;2.55;;;2.35;;
13733;SDS011;43298;52.560;13.508;2023-07-22T02:57:43;2.20;;;2.00;;
13733;SDS011;43298;52.560;13.508;2023-07-22T03:00:11;4.80;;;2.42;;
13733;SDS011;43298;52.560;13.508;2023-07-22T03:02:39;2.85;;;2.15;;
13733;SDS011;43298;52.560;13.508;2023-07-22T03:05:06;2.28;;;2.08;;
13733;SDS011;43298;52.560;13.508;2023-07-22T03:07:36;2.13;;;1.92;;
13733;SDS011;43298;52.560;13.508;2023-07-22T03:10:04;1.90;;;1.80;;
13733;SDS011;43298;52.560;13.508;2023-07-22T03:12:31;2.13;;;1.70;;
13733;SDS011;43298;52.560;13.508;2023-07-22T03:14:58;2.13;;;1.67;;
13733;SDS011;43298;52.560;13.508;2023-07-22T03:17:24;2.40;;;2.13;;
13733;SDS011;43298;52.560;13.508;2023-07-22T03:19:51;1.75;;;1.65;;
13733;SDS011;43298;52.560;13.508;2023-07-22T03:22:17;2.70;;;2.13;;
13733;SDS011;43298;52.560;13.508;2023-07-22T03:24:43;2.13;;;1.80;;
13733;SDS011;43298;52.560;13.508;2023-07-22T03:27:10;1.77;;;1.67;;
13733;SDS011;43298;52.560;13.508;2023-07-22T03:29:38;1.83;;;1.73;;
13733;SDS011;43298;52.560;13.508;2023-07-22T03:32:05;1.70;;;1.55;;
13733;SDS011;43298;52.560;13.508;2023-07-22T03:34:32;2.35;;;2.03;;
13733;SDS011;43298;52.560;13.508;2023-07-22T03:36:58;2.72;;;2.13;;
13733;SDS011;43298;52.560;13.508;2023-07-22T03:39:24;1.63;;;1.52;;
13733;SDS011;43298;52.560;13.508;2023-07-22T03:41:50;4.10;;;2.00;;
13733;SDS011;43298;52.560;13.508;2023-07-22T03:44:15;2.53;;;1.63;;
13733;SDS011;43298;52.560;13.508;2023-07-22T03:46:41;2.65;;;1.75;;
13733;SDS011;43298;52.560;13.508;2023-07-22T03:49:07;1.55;;;1.45;;
13733;SDS011;43298;52.560;13.508;2023-07-22T03:51:33;2.42;;;1.73;;
13733;SDS011;43298;52.560;13.508;2023-07-22T03:53:59;1.52;;;1.42;;
13733;SDS011;43298;52.560;13.508;2023-07-22T03:56:25;1.60;;;1.50;;
13733;SDS011;43298;52.560;13.508;2023-07-22T03:58:51;1.55;;;1.42;;
13733;SDS011;43298;52.560;13.508;2023-07-22T04:01:18;1.92;;;1.77;;
13733;SDS011;43298;52.560;13.508;2023-07-22T04:03:44;2.08;;;1.88;;
13733;SDS011;43298;52.560;13.508;2023-07-22T04:06:10;1.52;;;1.42;;
13733;SDS011;43298;52.560;13.508;2023-07-22T04:08:36;3.03;;;2.03;;
13733;SDS011;43298;52.560;13.508;2023-07-22T04:11:02;2.92;;;2.00;;
13733;SDS011;43298;52.560;13.508;2023-07-22T04:13:28;2.63;;;1.77;;
13733;SDS011;43298;52.560;13.508;2023-07-22T04:15:54;1.40;;;1.30;;
13733;SDS011;43298;52.560;13.508;2023-07-22T04:18:20;1.50;;;1.27;;
13733;SDS011;43298;52.560;13.508;2023-07-22T04:20:46;2.22;;;2.03;;
13733;SDS011;43298;52.560;13.508;2023-07-22T04:23:15;2.05;;;1.85;;
13733;SDS011;43298;52.560;13.508;2023-07-22T04:25:44;2.00;;;1.77;;
13733;SDS011;43298;52.560;13.508;2023-07-22T04:28:10;5.05;;;2.03;;
13733;SDS011;43298;52.560;13.508;2023-07-22T04:30:36;2.47;;;2.28;;
13733;SDS011;43298;52.560;13.508;2023-07-22T04:33:04;2.97;;;1.80;;
13733;SDS011;43298;52.560;13.508;2023-07-22T04:35:31;1.95;;;1.65;;
13733;SDS011;43298;52.560;13.508;2023-07-22T04:37:58;1.98;;;1.80;;
13733;SDS011;43298;52.560;13.508;2023-07-22T04:40:24;1.98;;;1.77;;
13733;SDS011;43298;52.560;13.508;2023-07-22T04:42:51;1.80;;;1.70;;
13733;SDS011;43298;52.560;13.508;2023-07-22T04:45:17;2.88;;;2.05;;
13733;SDS011;43298;52.560;13.508;2023-07-22T04:47:43;1.95;;;1.75;;
13733;SDS011;43298;52.560;13.508;2023-07-22T04:50:12;2.45;;;1.75;;
13733;SDS011;43298;52.560;13.508;2023-07-22T04:52:38;2.35;;;2.15;;
13733;SDS011;43298;52.560;13.508;2023-07-22T04:55:06;2.00;;;1.70;;
13733;SDS011;43298;52.560;13.508;2023-07-22T04:57:35;2.08;;;1.88;;
13733;SDS011;43298;52.560;13.508;2023-07-22T05:00:03;1.63;;;1.50;;
13733;SDS011;43298;52.560;13.508;2023-07-22T05:02:29;3.65;;;2.15;;
13733;SDS011;43298;52.560;13.508;2023-07-22T05:04:56;5.22;;;2.53;;
13733;SDS011;43298;52.560;13.508;2023-07-22T05:07:22;2.95;;;2.35;;
13733;SDS011;43298;52.560;13.508;2023-07-22T05:09:48;2.38;;;2.08;;
13733;SDS011;43298;52.560;13.508;2023-07-22T05:12:19;3.78;;;2.30;;
13733;SDS011;43298;52.560;13.508;2023-07-22T05:14:45;3.03;;;2.08;;
13733;SDS011;43298;52.560;13.508;2023-07-22T05:17:11;1.98;;;1.73;;
13733;SDS011;43298;52.560;13.508;2023-07-22T05:19:37;2.88;;;2.33;;
13733;SDS011;43298;52.560;13.508;2023-07-22T05:22:03;2.70;;;2.28;;
13733;SDS011;43298;52.560;13.508;2023-07-22T05:24:28;4.65;;;2.35;;
13733;SDS011;43298;52.560;13.508;2023-07-22T05:26:54;3.70;;;2.40;;
13733;SDS011;43298;52.560;13.508;2023-07-22T05:29:20;2.08;;;1.88;;
13733;SDS011;43298;52.560;13.508;2023-07-22T05:31:46;1.92;;;1.83;;
13733;SDS011;43298;52.560;13.508;2023-07-22T05:34:12;3.40;;;2.40;;
13733;SDS011;43298;52.560;13.508;2023-07-22T05:36:38;3.80;;;2.58;;
13733;SDS011;43298;52.560;13.508;2023-07-22T05:39:04;3.03;;;2.40;;
13733;SDS011;43298;52.560;13.508;2023-07-22T05:41:32;2.15;;;1.95;;
13733;SDS011;43298;52.560;13.508;2023-07-22T05:43:59;3.15;;;2.67;;
13733;SDS011;43298;52.560;13.508;2023-07-22T05:46:24;4.55;;;2.80;;
13733;SDS011;43298;52.560;13.508;2023-07-22T05:48:50;3.53;;;2.80;;
13733;SDS011;43298;52.560;13.508;2023-07-22T05:51:17;3.47;;;2.75;;
13733;SDS011;43298;52.560;13.508;2023-07-22T05:53:43;4.30;;;2.90;;
13733;SDS011;43298;52.560;13.508;2023-07-22T05:56:09;3.10;;;2.53;;
13733;SDS011;43298;52.560;13.508;2023-07-22T05:58:35;2.67;;;2.10;;
13733;SDS011;43298;52.560;13.508;2023-07-22T06:01:01;2.47;;;2.25;;
13733;SDS011;43298;52.560;13.508;2023-07-22T06:03:27;3.83;;;2.75;;
13733;SDS011;43298;52.560;13.508;2023-07-22T06:05:53;3.08;;;2.58;;
13733;SDS011;43298;52.560;13.508;2023-07-22T06:08:19;3.33;;;2.55;;
13733;SDS011;43298;52.560;13.508;2023-07-22T06:10:45;7.05;;;2.60;;
13733;SDS011;43298;52.560;13.508;2023-07-22T06:13:11;3.28;;;2.60;;
13733;SDS011;43298;52.560;13.508;2023-07-22T06:15:37;5.93;;;3.00;;
13733;SDS011;43298;52.560;13.508;2023-07-22T06:18:02;3.50;;;2.25;;
13733;SDS011;43298;52.560;13.508;2023-07-22T06:20:32;2.63;;;2.28;;
13733;SDS011;43298;52.560;13.508;2023-07-22T06:22:58;2.65;;;2.42;;
13733;SDS011;43298;52.560;13.508;2023-07-22T06:25:24;3.25;;;2.63;;
13733;SDS011;43298;52.560;13.508;2023-07-22T06:27:49;2.65;;;2.45;;
13733;SDS011;43298;52.560;13.508;2023-07-22T06:30:15;4.38;;;2.95;;
13733;SDS011;43298;52.560;13.508;2023-07-22T06:32:41;2.50;;;2.10;;
13733;SDS011;43298;52.560;13.508;2023-07-22T06:35:07;4.70;;;2.22;;
13733;SDS011;43298;52.560;13.508;2023-07-22T06:37:33;3.45;;;1.85;;
13733;SDS011;43298;52.560;13.508;2023-07-22T06:39:59;3.03;;;2.47;;
13733;SDS011;43298;52.560;13.508;2023-07-22T06:42:25;2.75;;;2.17;;
13733;SDS011;43298;52.560;13.508;2023-07-22T06:44:53;3.80;;;2.17;;
13733;SDS011;43298;52.560;13.508;2023-07-22T06:47:18;2.60;;;2.05;;
13733;SDS011;43298;52.560;13.508;2023-07-22T06:49:44;6.05;;;1.95;;
13733;SDS011;43298;52.560;13.508;2023-07-22T06:52:10;3.33;;;2.00;;
13733;SDS011;43298;52.560;13.508;2023-07-22T06:54:36;2.85;;;2.00;;
13733;SDS011;43298;52.560;13.508;2023-07-22T06:57:02;3.72;;;2.10;;
13733;SDS011;43298;52.560;13.508;2023-07-22T06:59:28;6.57;;;1.67;;
13733;SDS011;43298;52.560;13.508;2023-07-22T07:01:54;2.17;;;1.70;;
13733;SDS011;43298;52.560;13.508;2023-07-22T07:04:20;3.63;;;1.88;;
13733;SDS011;43298;52.560;13.508;2023-07-22T07:06:45;3.70;;;1.95;;
13733;SDS011;43298;52.560;13.508;2023-07-22T07:09:11;1.92;;;1.52;;
13733;SDS011;43298;52.560;13.508;2023-07-22T07:11:38;2.40;;;1.75;;
13733;SDS011;43298;52.560;13.508;2023-07-22T07:14:04;1.90;;;1.50;;
13733;SDS011;43298;52.560;13.508;2023-07-22T07:16:30;6.18;;;1.92;;
13733;SDS011;43298;52.560;13.508;2023-07-22T07:18:57;2.75;;;1.40;;
13733;SDS011;43298;52.560;13.508;2023-07-22T07:21:25;2.15;;;1.30;;
13733;SDS011;43298;52.560;13.508;2023-07-22T07:23:51;2.67;;;1.45;;
13733;SDS011;43298;52.560;13.508;2023-07-22T07:26:18;1.70;;;1.30;;
13733;SDS011;43298;52.560;13.508;2023-07-22T07:28:45;4.18;;;1.48;;
13733;SDS011;43298;52.560;13.508;2023-07-22T07:31:16;2.58;;;1.27;;
13733;SDS011;43298;52.560;13.508;2023-07-22T07:33:42;1.80;;;1.30;;
13733;SDS011;43298;52.560;13.508;2023-07-22T07:36:08;5.47;;;1.48;;
13733;SDS011;43298;52.560;13.508;2023-07-22T07:38:34;2.10;;;1.60;;
13733;SDS011;43298;52.560;13.508;2023-07-22T07:41:01;2.67;;;1.67;;
13733;SDS011;43298;52.560;13.508;2023-07-22T07:43:28;2.38;;;1.60;;
13733;SDS011;43298;52.560;13.508;2023-07-22T07:48:45;1.90;;;1.38;;
13733;SDS011;43298;52.560;13.508;2023-07-22T07:51:13;1.90;;;1.50;;
13733;SDS011;43298;52.560;13.508;2023-07-22T07:53:40;4.45;;;1.55;;
13733;SDS011;43298;52.560;13.508;2023-07-22T07:56:08;2.40;;;1.63;;
13733;SDS011;43298;52.560;13.508;2023-07-22T07:58:35;4.57;;;1.90;;
13733;SDS011;43298;52.560;13.508;2023-07-22T08:01:01;2.40;;;1.70;;
13733;SDS011;43298;52.560;13.508;2023-07-22T08:03:27;2.03;;;1.63;;
13733;SDS011;43298;52.560;13.508;2023-07-22T08:05:53;3.90;;;1.60;;
13733;SDS011;43298;52.560;13.508;2023-07-22T08:08:19;3.72;;;1.67;;
13733;SDS011;43298;52.560;13.508;2023-07-22T08:10:46;3.95;;;1.90;;
13733;SDS011;43298;52.560;13.508;2023-07-22T08:13:13;2.03;;;1.30;;
13733;SDS011;43298;52.560;13.508;2023-07-22T08:15:39;2.03;;;1.45;;
13733;SDS011;43298;52.560;13.508;2023-07-22T08:18:06;2.55;;;1.42;;
13733;SDS011;43298;52.560;13.508;2023-07-22T08:20:32;2.83;;;1.73;;
13733;SDS011;43298;52.560;13.508;2023-07-22T08:22:58;1.67;;;1.35;;
13733;SDS011;43298;52.560;13.508;2023-07-22T08:25:24;2.72;;;1.63;;
13733;SDS011;43298;52.560;13.508;2023-07-22T08:27:50;2.30;;;1.38;;
13733;SDS011;43298;52.560;13.508;2023-07-22T08:30:18;1.90;;;1.63;;
13733;SDS011;43298;52.560;13.508;2023-07-22T08:32:44;2.83;;;1.85;;
13733;SDS011;43298;52.560;13.508;2023-07-22T08:35:10;2.05;;;1.50;;
13733;SDS011;43298;52.560;13.508;2023-07-22T08:37:35;2.13;;;1.75;;
13733;SDS011;43298;52.560;13.508;2023-07-22T08:40:02;2.03;;;1.58;;
13733;SDS011;43298;52.560;13.508;2023-07-22T08:42:28;3.00;;;2.25;;
13733;SDS011;43298;52.560;13.508;2023-07-22T08:44:57;1.42;;;1.23;;
13733;SDS011;43298;52.560;13.508;2023-07-22T08:47:29;2.67;;;1.85;;
13733;SDS011;43298;52.560;13.508;2023-07-22T08:49:58;3.15;;;1.35;;
13733;SDS011;43298;52.560;13.508;2023-07-22T08:52:27;1.35;;;1.20;;
13733;SDS011;43298;52.560;13.508;2023-07-22T08:54:53;1.63;;;1.30;;
13733;SDS011;43298;52.560;13.508;2023-07-22T08:57:21;1.38;;;1.27;;
13733;SDS011;43298;52.560;13.508;2023-07-22T08:59:47;2.45;;;1.70;;
13733;SDS011;43298;52.560;13.508;2023-07-22T09:02:13;3.90;;;1.50;;
13733;SDS011;43298;52.560;13.508;2023-07-22T09:04:40;2.53;;;1.70;;
13733;SDS011;43298;52.560;13.508;2023-07-22T09:07:07;1.40;;;1.30;;
13733;SDS011;43298;52.560;13.508;2023-07-22T09:09:34;2.80;;;1.95;;
13733;SDS011;43298;52.560;13.508;2023-07-22T09:12:01;2.00;;;1.75;;
13733;SDS011;43298;52.560;13.508;2023-07-22T09:14:27;2.47;;;1.55;;
13733;SDS011;43298;52.560;13.508;2023-07-22T09:16:55;2.88;;;1.73;;
13733;SDS011;43298;52.560;13.508;2023-07-22T09:19:23;1.60;;;1.20;;
13733;SDS011;43298;52.560;13.508;2023-07-22T09:21:48;2.78;;;1.38;;
13733;SDS011;43298;52.560;13.508;2023-07-22T09:24:21;2.58;;;1.40;;
13733;SDS011;43298;52.560;13.508;2023-07-22T09:26:49;1.88;;;1.50;;
13733;SDS011;43298;52.560;13.508;2023-07-22T09:29:15;4.00;;;1.98;;
13733;SDS011;43298;52.560;13.508;2023-07-22T09:31:48;1.80;;;1.45;;
13733;SDS011;43298;52.560;13.508;2023-07-22T09:34:15;2.50;;;1.58;;
13733;SDS011;43298;52.560;13.508;2023-07-22T09:36:57;3.50;;;1.75;;
13733;SDS011;43298;52.560;13.508;2023-07-22T09:39:34;2.35;;;1.80;;
13733;SDS011;43298;52.560;13.508;2023-07-22T09:42:00;2.33;;;1.75;;
13733;SDS011;43298;52.560;13.508;2023-07-22T09:44:29;1.27;;;1.05;;
13733;SDS011;43298;52.560;13.508;2023-07-22T09:46:57;1.60;;;1.45;;
13733;SDS011;43298;52.560;13.508;2023-07-22T09:49:31;1.67;;;1.27;;
13733;SDS011;43298;52.560;13.508;2023-07-22T09:51:57;3.65;;;1.73;;
13733;SDS011;43298;52.560;13.508;2023-07-22T09:54:24;2.80;;;1.38;;
13733;SDS011;43298;52.560;13.508;2023-07-22T09:56:54;2.42;;;1.42;;
13733;SDS011;43298;52.560;13.508;2023-07-22T09:59:19;1.80;;;1.40;;
13733;SDS011;43298;52.560;13.508;2023-07-22T10:01:50;0.68;;;0.68;;
13733;SDS011;43298;52.560;13.508;2023-07-22T10:04:17;2.15;;;1.17;;
13733;SDS011;43298;52.560;13.508;2023-07-22T10:06:46;1.45;;;1.15;;
13733;SDS011;43298;52.560;13.508;2023-07-22T10:09:12;1.58;;;1.20;;
13733;SDS011;43298;52.560;13.508;2023-07-22T10:11:40;1.30;;;1.13;;
13733;SDS011;43298;52.560;13.508;2023-07-22T10:14:07;1.38;;;1.00;;
13733;SDS011;43298;52.560;13.508;2023-07-22T10:16:34;1.33;;;1.17;;
13733;SDS011;43298;52.560;13.508;2023-07-22T10:19:01;4.07;;;1.23;;
13733;SDS011;43298;52.560;13.508;2023-07-22T10:21:29;1.00;;;0.90;;
13733;SDS011;43298;52.560;13.508;2023-07-22T10:23:55;0.98;;;0.80;;
13733;SDS011;43298;52.560;13.508;2023-07-22T10:26:21;0.98;;;0.70;;
13733;SDS011;43298;52.560;13.508;2023-07-22T10:28:47;2.15;;;1.10;;
13733;SDS011;43298;52.560;13.508;2023-07-22T10:31:13;0.98;;;0.90;;
13733;SDS011;43298;52.560;13.508;2023-07-22T10:33:44;0.95;;;0.90;;
13733;SDS011;43298;52.560;13.508;2023-07-22T10:36:15;1.20;;;0.85;;
13733;SDS011;43298;52.560;13.508;2023-07-22T10:38:42;1.35;;;1.17;;
13733;SDS011;43298;52.560;13.508;2023-07-22T10:41:15;0.98;;;0.88;;
13733;SDS011;43298;52.560;13.508;2023-07-22T10:43:42;1.85;;;1.08;;
13733;SDS011;43298;52.560;13.508;2023-07-22T10:46:32;1.73;;;1.00;;
13733;SDS011;43298;52.560;13.508;2023-07-22T10:49:15;2.67;;;1.48;;
13733;SDS011;43298;52.560;13.508;2023-07-22T10:51:47;1.40;;;1.20;;
13733;SDS011;43298;52.560;13.508;2023-07-22T10:54:15;1.25;;;1.05;;
13733;SDS011;43298;52.560;13.508;2023-07-22T10:56:57;1.75;;;0.93;;
13733;SDS011;43298;52.560;13.508;2023-07-22T10:59:29;1.33;;;1.20;;
13733;SDS011;43298;52.560;13.508;2023-07-22T11:01:59;4.47;;;1.75;;
13733;SDS011;43298;52.560;13.508;2023-07-22T11:04:25;1.23;;;1.02;;
13733;SDS011;43298;52.560;13.508;2023-07-22T11:07:04;1.27;;;1.13;;
13733;SDS011;43298;52.560;13.508;2023-07-22T11:12:00;2.00;;;1.13;;
13733;SDS011;43298;52.560;13.508;2023-07-22T11:14:32;1.48;;;1.02;;
13733;SDS011;43298;52.560;13.508;2023-07-22T11:17:02;1.90;;;1.10;;
13733;SDS011;43298;52.560;13.508;2023-07-22T11:19:30;3.25;;;1.40;;
13733;SDS011;43298;52.560;13.508;2023-07-22T11:21:58;1.73;;;1.30;;
13733;SDS011;43298;52.560;13.508;2023-07-22T11:24:24;2.95;;;1.50;;
13733;SDS011;43298;52.560;13.508;2023-07-22T11:26:51;1.77;;;1.23;;
13733;SDS011;43298;52.560;13.508;2023-07-22T11:29:18;1.42;;;1.20;;
13733;SDS011;43298;52.560;13.508;2023-07-22T11:31:48;1.20;;;1.10;;
13733;SDS011;43298;52.560;13.508;2023-07-22T11:34:17;1.48;;;1.00;;
13733;SDS011;43298;52.560;13.508;2023-07-22T11:36:49;2.30;;;1.27;;
13733;SDS011;43298;52.560;13.508;2023-07-22T11:39:18;1.83;;;1.45;;
13733;SDS011;43298;52.560;13.508;2023-07-22T11:41:46;2.47;;;1.45;;
13733;SDS011;43298;52.560;13.508;2023-07-22T11:44:14;1.75;;;1.38;;
13733;SDS011;43298;52.560;13.508;2023-07-22T11:46:59;2.10;;;1.27;;
13733;SDS011;43298;52.560;13.508;2023-07-22T11:49:34;2.08;;;1.20;;
13733;SDS011;43298;52.560;13.508;2023-07-22T11:54:31;1.30;;;1.20;;
13733;SDS011;43298;52.560;13.508;2023-07-22T11:59:44;1.70;;;1.02;;
13733;SDS011;43298;52.560;13.508;2023-07-22T12:02:25;2.83;;;1.88;;
13733;SDS011;43298;52.560;13.508;2023-07-22T12:04:55;1.42;;;1.15;;
13733;SDS011;43298;52.560;13.508;2023-07-22T12:07:34;2.88;;;1.30;;
13733;SDS011;43298;52.560;13.508;2023-07-22T12:10:07;1.48;;;1.33;;
13733;SDS011;43298;52.560;13.508;2023-07-22T12:12:41;1.63;;;1.30;;
13733;SDS011;43298;52.560;13.508;2023-07-22T12:15:11;1.63;;;1.00;;
13733;SDS011;43298;52.560;13.508;2023-07-22T12:17:55;2.03;;;1.52;;
13733;SDS011;43298;52.560;13.508;2023-07-22T12:20:26;1.88;;;1.33;;
13733;SDS011;43298;52.560;13.508;2023-07-22T12:22:55;1.40;;;1.30;;
13733;SDS011;43298;52.560;13.508;2023-07-22T12:25:22;1.33;;;1.10;;
13733;SDS011;43298;52.560;13.508;2023-07-22T12:27:48;1.27;;;1.17;;
13733;SDS011;43298;52.560;13.508;2023-07-22T12:30:15;1.67;;;1.58;;
13733;SDS011;43298;52.560;13.508;2023-07-22T12:32:41;1.80;;;1.40;;
13733;SDS011;43298;52.560;13.508;2023-07-22T12:35:07;2.78;;;1.15;;
13733;SDS011;43298;52.560;13.508;2023-07-22T12:37:34;1.48;;;1.33;;
13733;SDS011;43298;52.560;13.508;2023-07-22T12:40:01;1.80;;;1.23;;
13733;SDS011;43298;52.560;13.508;2023-07-22T12:42:30;1.65;;;1.27;;
13733;SDS011;43298;52.560;13.508;2023-07-22T12:44:55;2.75;;;1.50;;
13733;SDS011;43298;52.560;13.508;2023-07-22T12:47:21;2.15;;;1.40;;
13733;SDS011;43298;52.560;13.508;2023-07-22T12:49:47;4.07;;;1.60;;
13733;SDS011;43298;52.560;13.508;2023-07-22T12:52:13;1.88;;;1.35;;
13733;SDS011;43298;52.560;13.508;2023-07-22T12:54:38;3.38;;;1.65;;
13733;SDS011;43298;52.560;13.508;2023-07-22T12:57:04;2.30;;;1.90;;
13733;SDS011;43298;52.560;13.508;2023-07-22T12:59:30;2.33;;;1.30;;
13733;SDS011;43298;52.560;13.508;2023-07-22T13:01:56;3.50;;;2.30;;
13733;SDS011;43298;52.560;13.508;2023-07-22T13:04:25;1.60;;;1.20;;
13733;SDS011;43298;52.560;13.508;2023-07-22T13:06:51;2.25;;;1.80;;
13733;SDS011;43298;52.560;13.508;2023-07-22T13:09:17;2.05;;;1.67;;
13733;SDS011;43298;52.560;13.508;2023-07-22T13:11:44;1.70;;;1.48;;
13733;SDS011;43298;52.560;13.508;2023-07-22T13:14:10;2.60;;;1.50;;
13733;SDS011;43298;52.560;13.508;2023-07-22T13:16:36;2.17;;;1.30;;
13733;SDS011;43298;52.560;13.508;2023-07-22T13:19:02;1.98;;;1.63;;
13733;SDS011;43298;52.560;13.508;2023-07-22T13:21:28;1.38;;;1.27;;
13733;SDS011;43298;52.560;13.508;2023-07-22T13:23:55;1.80;;;1.33;;
13733;SDS011;43298;52.560;13.508;2023-07-22T13:26:20;1.60;;;1.40;;
13733;SDS011;43298;52.560;13.508;2023-07-22T13:28:46;1.38;;;1.15;;
13733;SDS011;43298;52.560;13.508;2023-07-22T13:31:12;2.78;;;1.73;;
13733;SDS011;43298;52.560;13.508;2023-07-22T13:33:38;2.25;;;1.35;;
13733;SDS011;43298;52.560;13.508;2023-07-22T13:36:05;1.95;;;1.45;;
13733;SDS011;43298;52.560;13.508;2023-07-22T13:38:31;3.80;;;1.98;;
13733;SDS011;43298;52.560;13.508;2023-07-22T13:40:58;1.40;;;1.30;;
13733;SDS011;43298;52.560;13.508;2023-07-22T13:43:24;1.65;;;1.38;;
13733;SDS011;43298;52.560;13.508;2023-07-22T13:45:55;3.38;;;1.42;;
13733;SDS011;43298;52.560;13.508;2023-07-22T13:48:22;4.20;;;1.95;;
13733;SDS011;43298;52.560;13.508;2023-07-22T13:50:48;2.05;;;1.33;;
13733;SDS011;43298;52.560;13.508;2023-07-22T13:53:14;1.77;;;1.40;;
13733;SDS011;43298;52.560;13.508;2023-07-22T13:55:40;2.17;;;1.85;;
13733;SDS011;43298;52.560;13.508;2023-07-22T13:58:06;4.95;;;1.27;;
13733;SDS011;43298;52.560;13.508;2023-07-22T14:00:33;2.88;;;1.40;;
13733;SDS011;43298;52.560;13.508;2023-07-22T14:02:59;1.70;;;1.60;;
13733;SDS011;43298;52.560;13.508;2023-07-22T14:05:25;2.22;;;1.38;;
13733;SDS011;43298;52.560;13.508;2023-07-22T14:07:51;2.15;;;1.70;;
13733;SDS011;43298;52.560;13.508;2023-07-22T14:10:18;2.80;;;1.42;;
13733;SDS011;43298;52.560;13.508;2023-07-22T14:12:44;2.10;;;1.25;;
13733;SDS011;43298;52.560;13.508;2023-07-22T14:15:09;2.30;;;1.55;;
13733;SDS011;43298;52.560;13.508;2023-07-22T14:17:37;1.75;;;1.65;;
13733;SDS011;43298;52.560;13.508;2023-07-22T14:20:04;1.75;;;1.50;;
13733;SDS011;43298;52.560;13.508;2023-07-22T14:22:31;1.90;;;1.70;;
13733;SDS011;43298;52.560;13.508;2023-07-22T14:24:58;4.25;;;2.17;;
13733;SDS011;43298;52.560;13.508;2023-07-22T14:27:23;1.33;;;1.23;;
13733;SDS011;43298;52.560;13.508;2023-07-22T14:29:49;2.65;;;1.73;;
13733;SDS011;43298;52.560;13.508;2023-07-22T14:32:15;2.20;;;1.42;;
13733;SDS011;43298;52.560;13.508;2023-07-22T14:34:41;1.65;;;1.25;;
13733;SDS011;43298;52.560;13.508;2023-07-22T14:37:07;1.60;;;1.50;;
13733;SDS011;43298;52.560;13.508;2023-07-22T14:39:33;1.63;;;1.45;;
13733;SDS011;43298;52.560;13.508;2023-07-22T14:41:59;3.20;;;1.83;;
13733;SDS011;43298;52.560;13.508;2023-07-22T14:44:25;2.55;;;1.45;;